createdAt,value
2022-11-09T00:01:12.930Z,6.40
2022-11-09T00:03:45.812Z,6.36
2022-11-09T00:06:18.275Z,6.31
2022-11-09T00:08:51.491Z,6.40
2022-11-09T00:11:24.247Z,6.42
2022-11-09T00:13:56.726Z,6.40
2022-11-09T00:16:29.966Z,6.31
2022-11-09T00:19:02.413Z,6.42
2022-11-09T00:21:35.038Z,6.41
2022-11-09T00:24:07.565Z,6.36
2022-11-09T00:26:40.021Z,6.27
2022-11-09T00:29:12.414Z,6.24
2022-11-09T00:31:45.525Z,6.21
2022-11-09T00:34:20.718Z,6.18
2022-11-09T00:36:53.062Z,6.09
2022-11-09T00:39:25.498Z,6.13
2022-11-09T00:41:57.836Z,6.17
2022-11-09T00:44:30.220Z,6.15
2022-11-09T00:47:03.389Z,6.13
2022-11-09T00:49:35.734Z,6.12
2022-11-09T00:52:08.444Z,6.04
2022-11-09T00:54:41.108Z,6.03
2022-11-09T00:57:13.577Z,6.07
2022-11-09T00:59:49.378Z,6.07
2022-11-09T01:02:22.501Z,6.07
2022-11-09T01:04:55.017Z,5.95
2022-11-09T01:07:27.388Z,5.91
2022-11-09T01:09:59.783Z,5.96
2022-11-09T01:12:32.738Z,5.97
2022-11-09T01:15:06.161Z,5.94
2022-11-09T01:17:40.327Z,5.87
2022-11-09T01:20:13.060Z,5.85
2022-11-09T01:22:45.449Z,5.77
2022-11-09T01:25:17.856Z,5.76
2022-11-09T01:27:50.228Z,5.81
2022-11-09T01:30:22.707Z,5.72
2022-11-09T01:32:55.811Z,5.74
2022-11-09T01:35:28.262Z,5.62
2022-11-09T01:38:01.671Z,5.68
2022-11-09T01:40:36.409Z,5.60
2022-11-09T01:43:16.185Z,5.60
2022-11-09T01:45:51.859Z,5.55
2022-11-09T01:48:34.407Z,5.53
2022-11-09T01:51:13.332Z,5.52
2022-11-09T01:53:49.385Z,5.55
2022-11-09T01:56:22.133Z,5.56
2022-11-09T01:58:57.712Z,5.46
2022-11-09T02:01:31.555Z,5.49
2022-11-09T02:04:09.911Z,5.38
2022-11-09T02:06:43.242Z,5.34
2022-11-09T02:09:23.124Z,5.43
2022-11-09T02:11:55.601Z,5.39
2022-11-09T02:14:29.872Z,5.32
2022-11-09T02:17:02.698Z,5.30
2022-11-09T02:19:36.393Z,5.27
2022-11-09T02:22:10.318Z,5.25
2022-11-09T02:24:42.812Z,5.29
2022-11-09T02:27:15.196Z,5.21
2022-11-09T02:29:49.067Z,5.23
2022-11-09T02:32:24.288Z,5.25
2022-11-09T02:34:58.547Z,5.24
2022-11-09T02:37:37.670Z,5.19
2022-11-09T02:40:14.348Z,5.20
2022-11-09T02:42:46.900Z,5.24
2022-11-09T02:45:19.314Z,5.08
2022-11-09T02:47:51.750Z,5.19
2022-11-09T02:50:24.382Z,5.19
2022-11-09T02:52:57.472Z,5.22
2022-11-09T02:55:32.813Z,5.24
2022-11-09T02:58:05.360Z,5.26
2022-11-09T03:00:37.961Z,5.26
2022-11-09T03:03:11.116Z,5.34
2022-11-09T03:05:43.804Z,5.37
2022-11-09T03:08:17.978Z,5.39
2022-11-09T03:10:51.486Z,5.37
2022-11-09T03:13:23.957Z,5.35
2022-11-09T03:15:56.466Z,5.34
2022-11-09T03:18:28.884Z,5.41
2022-11-09T03:21:02.557Z,5.35
2022-11-09T03:23:35.941Z,5.34
2022-11-09T03:26:08.748Z,5.25
2022-11-09T03:28:42.214Z,5.22
2022-11-09T03:31:14.819Z,5.27
2022-11-09T03:33:47.374Z,5.24
2022-11-09T03:36:20.472Z,5.24
2022-11-09T03:38:53.554Z,5.22
2022-11-09T03:41:26.133Z,5.22
2022-11-09T03:43:58.510Z,5.20
2022-11-09T03:46:30.959Z,5.18
2022-11-09T03:49:03.401Z,5.21
2022-11-09T03:51:35.877Z,5.18
2022-11-09T03:54:09.225Z,5.12
2022-11-09T03:56:41.562Z,5.14
2022-11-09T03:59:13.957Z,5.12
2022-11-09T04:01:46.399Z,5.12
2022-11-09T04:04:18.904Z,5.12
2022-11-09T04:06:51.300Z,5.10
2022-11-09T04:09:24.409Z,5.10
2022-11-09T04:11:56.766Z,5.08
2022-11-09T04:14:29.174Z,5.10
2022-11-09T04:17:01.541Z,5.06
2022-11-09T04:19:34.195Z,4.99
2022-11-09T04:22:06.807Z,5.01
2022-11-09T04:24:39.917Z,5.03
2022-11-09T04:27:12.329Z,4.97
2022-11-09T04:29:44.777Z,4.94
2022-11-09T04:32:17.479Z,4.92
2022-11-09T04:34:49.849Z,4.90
2022-11-09T04:37:22.204Z,4.79
2022-11-09T04:39:55.231Z,4.78
2022-11-09T04:42:27.593Z,4.72
2022-11-09T04:44:59.974Z,4.75
2022-11-09T04:47:32.785Z,4.71
2022-11-09T04:50:06.524Z,4.72
2022-11-09T04:52:39.005Z,4.70
2022-11-09T04:55:12.052Z,4.72
2022-11-09T04:57:44.426Z,4.70
2022-11-09T05:00:17.049Z,4.73
2022-11-09T05:02:49.411Z,4.73
2022-11-09T05:05:21.790Z,4.75
2022-11-09T05:07:54.137Z,4.70
2022-11-09T05:10:27.265Z,4.68
2022-11-09T05:13:01.466Z,4.70
2022-11-09T05:15:35.005Z,4.72
2022-11-09T05:18:08.093Z,4.72
2022-11-09T05:20:40.501Z,4.77
2022-11-09T05:23:31.098Z,4.83
2022-11-09T05:26:04.248Z,4.88
2022-11-09T05:28:36.741Z,4.87
2022-11-09T05:31:09.123Z,4.91
2022-11-09T05:33:41.487Z,4.91
2022-11-09T05:36:13.852Z,4.90
2022-11-09T05:38:46.753Z,4.84
2022-11-09T05:41:19.801Z,4.83
2022-11-09T05:43:52.270Z,4.82
2022-11-09T05:46:25.587Z,4.86
2022-11-09T05:48:57.923Z,4.83
2022-11-09T05:51:30.282Z,4.87
2022-11-09T05:54:02.814Z,4.84
2022-11-09T05:56:35.897Z,4.88
2022-11-09T05:59:08.484Z,4.86
2022-11-09T06:01:41.165Z,4.90
2022-11-09T06:04:13.577Z,4.91
2022-11-09T06:06:46.116Z,4.94
2022-11-09T06:09:18.504Z,4.99
2022-11-09T06:11:52.051Z,4.99
2022-11-09T06:14:24.699Z,5.01
2022-11-09T06:16:57.078Z,5.09
2022-11-09T06:19:29.448Z,5.13
2022-11-09T06:22:01.898Z,5.22
2022-11-09T06:24:35.062Z,5.30
2022-11-09T06:27:08.273Z,5.31
2022-11-09T06:29:40.690Z,5.38
2022-11-09T06:32:13.075Z,5.46
2022-11-09T06:34:47.625Z,5.54
2022-11-09T06:37:20.005Z,5.61
2022-11-09T06:39:52.453Z,5.63
2022-11-09T06:42:25.650Z,5.73
2022-11-09T06:44:58.071Z,5.84
2022-11-09T06:47:30.472Z,5.98
2022-11-09T06:50:02.973Z,6.04
2022-11-09T06:52:35.439Z,6.15
2022-11-09T06:55:09.250Z,6.31
2022-11-09T06:57:42.319Z,6.49
2022-11-09T07:00:16.137Z,6.65
2022-11-09T07:02:48.636Z,6.80
2022-11-09T07:05:21.067Z,6.93
2022-11-09T07:07:53.496Z,7.09
2022-11-09T07:10:25.964Z,7.22
2022-11-09T07:12:59.160Z,7.38
2022-11-09T07:15:31.985Z,7.53
2022-11-09T07:18:07.315Z,7.71
2022-11-09T07:20:39.821Z,7.83
2022-11-09T07:23:12.224Z,8.01
2022-11-09T07:25:44.642Z,8.14
2022-11-09T07:28:17.778Z,8.25
2022-11-09T07:30:52.306Z,8.43
2022-11-09T07:33:25.209Z,8.56
2022-11-09T07:35:58.825Z,8.70
2022-11-09T07:38:31.682Z,8.83
2022-11-09T07:41:04.222Z,9.02
2022-11-09T07:43:37.314Z,8.94
2022-11-09T07:46:10.702Z,9.08
2022-11-09T07:48:43.086Z,9.09
2022-11-09T07:51:15.423Z,9.20
2022-11-09T07:53:47.847Z,9.33
2022-11-09T07:56:20.345Z,9.37
2022-11-09T07:58:54.093Z,9.54
2022-11-09T08:01:26.595Z,9.65
2022-11-09T08:03:58.922Z,9.72
2022-11-09T08:06:31.360Z,9.71
2022-11-09T08:09:03.877Z,9.93
2022-11-09T08:11:36.290Z,10.08
2022-11-09T08:14:09.883Z,10.01
2022-11-09T08:16:42.414Z,10.12
2022-11-09T08:19:14.980Z,10.28
2022-11-09T08:21:47.355Z,10.24
2022-11-09T08:24:19.733Z,10.34
2022-11-09T08:26:52.088Z,10.50
2022-11-09T08:29:25.120Z,10.76
2022-11-09T08:31:57.515Z,10.88
2022-11-09T08:34:29.921Z,11.12
2022-11-09T08:37:04.724Z,11.12
2022-11-09T08:39:37.110Z,10.85
2022-11-09T08:42:09.458Z,10.73
2022-11-09T08:44:42.687Z,11.13
2022-11-09T08:47:15.049Z,11.49
2022-11-09T08:49:47.723Z,11.66
2022-11-09T08:52:20.150Z,11.83
2022-11-09T08:54:52.537Z,12.04
2022-11-09T08:57:25.128Z,12.04
2022-11-09T08:59:58.287Z,12.29
2022-11-09T09:02:30.687Z,12.54
2022-11-09T09:05:03.403Z,12.78
2022-11-09T09:07:35.785Z,12.87
2022-11-09T09:10:08.574Z,13.10
2022-11-09T09:12:40.915Z,13.38
2022-11-09T09:15:13.979Z,13.53
2022-11-09T09:17:46.484Z,13.36
2022-11-09T09:20:19.008Z,13.45
2022-11-09T09:22:51.383Z,13.52
2022-11-09T09:25:24.074Z,13.58
2022-11-09T09:27:56.594Z,13.85
2022-11-09T09:30:29.638Z,13.86
2022-11-09T09:33:02.289Z,14.04
2022-11-09T09:35:34.708Z,14.22
2022-11-09T09:38:07.103Z,14.44
2022-11-09T09:40:50.661Z,14.66
2022-11-09T09:43:28.630Z,14.76
2022-11-09T09:46:05.913Z,14.84
2022-11-09T09:48:43.545Z,14.80
2022-11-09T09:51:21.662Z,14.81
2022-11-09T09:54:01.192Z,14.82
2022-11-09T09:56:38.564Z,15.02
2022-11-09T09:59:19.106Z,15.01
2022-11-09T10:01:52.614Z,15.26
2022-11-09T10:04:32.470Z,15.48
2022-11-09T10:07:12.594Z,15.38
2022-11-09T10:10:00.260Z,15.17
2022-11-09T10:12:46.958Z,14.97
2022-11-09T10:15:25.430Z,14.94
2022-11-09T10:18:17.870Z,15.21
2022-11-09T10:21:06.613Z,15.32
2022-11-09T10:23:49.155Z,15.39
2022-11-09T10:26:27.172Z,15.70
2022-11-09T10:29:15.700Z,15.88
2022-11-09T10:31:51.749Z,15.78
2022-11-09T10:34:29.181Z,15.82
2022-11-09T10:37:09.806Z,15.83
2022-11-09T10:39:49.122Z,16.01
2022-11-09T10:42:44.386Z,16.23
2022-11-09T10:45:37.125Z,15.92
2022-11-09T10:48:33.477Z,16.17
2022-11-09T10:51:40.122Z,16.49
2022-11-09T10:54:34.133Z,16.58
2022-11-09T10:57:25.556Z,16.76
2022-11-09T11:00:18.556Z,16.78
2022-11-09T11:03:15.666Z,16.75
2022-11-09T11:06:14.615Z,17.01
2022-11-09T11:09:16.180Z,17.12
2022-11-09T11:12:14.525Z,17.17
2022-11-09T11:15:21.322Z,17.44
2022-11-09T11:18:22.393Z,16.96
2022-11-09T11:21:18.816Z,17.35
2022-11-09T11:24:17.941Z,17.64
2022-11-09T11:27:16.065Z,17.71
2022-11-09T11:30:11.421Z,17.45
2022-11-09T11:33:05.590Z,17.50
2022-11-09T11:36:04.736Z,17.54
2022-11-09T11:39:02.348Z,17.34
2022-11-09T11:42:10.931Z,17.39
2022-11-09T11:45:38.965Z,17.57
2022-11-09T11:48:54.735Z,17.75
2022-11-09T11:51:53.936Z,17.57
2022-11-09T11:55:01.736Z,17.40
2022-11-09T11:58:08.191Z,17.56
2022-11-09T12:01:12.414Z,17.61
2022-11-09T12:04:29.470Z,17.74
2022-11-09T12:07:27.408Z,17.80
2022-11-09T12:10:31.637Z,17.93
2022-11-09T12:13:55.720Z,17.64
2022-11-09T12:16:52.718Z,17.77
2022-11-09T12:20:03.109Z,17.77
2022-11-09T12:23:11.041Z,17.68
2022-11-09T12:26:16.163Z,17.81
2022-11-09T12:29:19.048Z,17.85
2022-11-09T12:32:20.277Z,17.90
2022-11-09T12:35:27.314Z,18.00
2022-11-09T12:38:21.644Z,17.64
2022-11-09T12:41:16.490Z,17.78
2022-11-09T12:44:17.295Z,17.64
2022-11-09T12:47:15.154Z,17.48
2022-11-09T12:50:11.888Z,17.25
2022-11-09T12:53:04.713Z,17.36
2022-11-09T12:56:00.308Z,17.62
2022-11-09T12:58:51.573Z,17.58
2022-11-09T13:01:50.806Z,17.85
2022-11-09T13:04:55.109Z,18.03
2022-11-09T13:07:49.963Z,17.84
2022-11-09T13:10:41.319Z,17.73
2022-11-09T13:13:32.697Z,17.76
2022-11-09T13:16:35.390Z,17.52
2022-11-09T13:19:53.612Z,17.58
2022-11-09T13:22:59.879Z,17.60
2022-11-09T13:25:52.478Z,17.56
2022-11-09T13:29:05.897Z,17.64
2022-11-09T13:32:23.263Z,17.51
2022-11-09T13:35:44.077Z,17.43
2022-11-09T13:38:36.201Z,17.48
2022-11-09T13:41:42.407Z,17.04
2022-11-09T13:44:37.561Z,17.21
2022-11-09T13:47:36.505Z,17.04
2022-11-09T13:50:29.768Z,17.05
2022-11-09T13:53:29.717Z,16.96
2022-11-09T13:56:31.462Z,16.68
2022-11-09T13:59:27.201Z,16.55
2022-11-09T14:02:20.335Z,16.59
2022-11-09T14:05:27.258Z,16.43
2022-11-09T14:08:22.829Z,16.22
2022-11-09T14:11:38.610Z,16.15
2022-11-09T14:14:51.592Z,16.23
2022-11-09T14:17:56.129Z,16.01
2022-11-09T14:20:54.674Z,16.03
2022-11-09T14:23:45.768Z,15.86
2022-11-09T14:26:37.224Z,15.82
2022-11-09T14:29:32.216Z,15.68
2022-11-09T14:32:26.216Z,15.74
2022-11-09T14:35:22.922Z,15.63
2022-11-09T14:38:18.070Z,15.44
2022-11-09T14:41:19.878Z,15.45
2022-11-09T14:44:17.161Z,15.41
2022-11-09T14:47:15.426Z,15.36
2022-11-09T14:50:14.294Z,15.28
2022-11-09T14:53:06.150Z,15.25
2022-11-09T14:56:02.589Z,15.20
2022-11-09T14:58:56.269Z,15.07
2022-11-09T15:01:59.773Z,14.99
2022-11-09T15:04:55.852Z,14.83
2022-11-09T15:07:48.067Z,14.73
2022-11-09T15:10:39.321Z,14.57
2022-11-09T15:13:32.461Z,14.34
2022-11-09T15:16:27.649Z,14.31
2022-11-09T15:19:23.825Z,14.15
2022-11-09T15:22:47.838Z,13.97
2022-11-09T15:25:53.726Z,13.77
2022-11-09T15:28:46.700Z,13.59
2022-11-09T15:31:37.974Z,13.50
2022-11-09T15:34:38.605Z,13.34
2022-11-09T15:37:46.650Z,13.23
2022-11-09T15:40:37.348Z,13.05
2022-11-09T15:43:28.809Z,12.89
2022-11-09T15:46:22.993Z,12.77
2022-11-09T15:49:16.865Z,12.67
2022-11-09T15:52:11.446Z,12.59
2022-11-09T15:55:02.041Z,12.34
2022-11-09T15:57:52.777Z,12.20
2022-11-09T16:00:44.958Z,12.08
2022-11-09T16:03:36.002Z,11.99
2022-11-09T16:06:27.023Z,11.91
2022-11-09T16:09:18.631Z,11.85
2022-11-09T16:12:10.038Z,11.79
2022-11-09T16:15:00.665Z,11.73
2022-11-09T16:17:52.213Z,11.63
2022-11-09T16:20:43.045Z,11.50
2022-11-09T16:23:33.981Z,11.34
2022-11-09T16:26:25.685Z,11.19
2022-11-09T16:29:16.585Z,11.18
2022-11-09T16:32:07.667Z,11.07
2022-11-09T16:35:23.488Z,10.93
2022-11-09T16:38:10.562Z,10.76
2022-11-09T16:41:03.494Z,10.59
2022-11-09T16:43:56.715Z,10.43
2022-11-09T16:46:48.164Z,10.37
2022-11-09T16:49:39.049Z,10.30
2022-11-09T16:52:29.938Z,10.27
2022-11-09T16:55:21.029Z,10.27
2022-11-09T16:58:12.229Z,10.24
2022-11-09T17:01:11.484Z,10.18
2022-11-09T17:04:03.438Z,10.13
2022-11-09T17:06:55.106Z,10.08
2022-11-09T17:09:46.134Z,9.90
2022-11-09T17:12:37.182Z,9.99
2022-11-09T17:15:28.585Z,9.92
2022-11-09T17:18:20.529Z,9.82
2022-11-09T17:21:13.611Z,9.67
2022-11-09T17:24:05.699Z,9.60
2022-11-09T17:26:56.828Z,9.46
2022-11-09T17:29:47.935Z,9.35
2022-11-09T17:32:40.155Z,9.19
2022-11-09T17:35:35.817Z,9.19
2022-11-09T17:38:28.068Z,9.08
2022-11-09T17:41:20.935Z,8.99
2022-11-09T17:44:11.930Z,8.86
2022-11-09T17:47:03.959Z,8.81
2022-11-09T17:49:54.989Z,8.73
2022-11-09T17:52:47.027Z,8.79
2022-11-09T17:55:38.271Z,8.72
2022-11-09T17:58:29.736Z,8.68
2022-11-09T18:01:21.331Z,8.69
2022-11-09T18:04:12.797Z,8.67
2022-11-09T18:07:04.047Z,8.58
2022-11-09T18:09:55.996Z,8.55
2022-11-09T18:12:48.760Z,8.57
2022-11-09T18:15:39.947Z,8.58
2022-11-09T18:18:31.094Z,8.61
2022-11-09T18:21:24.161Z,8.58
2022-11-09T18:24:15.776Z,8.57
2022-11-09T18:27:07.590Z,8.56
2022-11-09T18:30:01.780Z,8.47
2022-11-09T18:32:53.106Z,8.48
2022-11-09T18:35:44.488Z,8.47
2022-11-09T18:38:36.160Z,8.44
2022-11-09T18:41:28.674Z,8.42
2022-11-09T18:44:20.693Z,8.36
2022-11-09T18:47:15.316Z,8.26
2022-11-09T18:50:07.053Z,8.25
2022-11-09T18:52:58.230Z,8.20
2022-11-09T18:55:51.265Z,8.15
2022-11-09T18:58:42.729Z,8.17
2022-11-09T19:01:34.917Z,8.12
2022-11-09T19:04:26.924Z,8.10
2022-11-09T19:07:18.872Z,8.09
2022-11-09T19:10:10.621Z,8.09
2022-11-09T19:13:07.537Z,8.06
2022-11-09T19:15:58.724Z,8.06
2022-11-09T19:18:53.517Z,8.03
2022-11-09T19:21:47.541Z,7.99
2022-11-09T19:24:38.795Z,7.90
2022-11-09T19:27:31.934Z,7.86
2022-11-09T19:30:27.968Z,7.82
2022-11-09T19:33:20.546Z,7.81
2022-11-09T19:36:31.199Z,7.77
2022-11-09T19:39:22.894Z,7.65
2022-11-09T19:42:16.851Z,7.60
2022-11-09T19:45:11.388Z,7.57
2022-11-09T19:48:03.659Z,7.54
2022-11-09T19:50:55.443Z,7.51
2022-11-09T19:53:52.038Z,7.54
2022-11-09T19:56:43.206Z,7.40
2022-11-09T19:59:37.712Z,7.35
2022-11-09T20:02:31.208Z,7.35
2022-11-09T20:05:22.288Z,7.29
2022-11-09T20:08:14.829Z,7.21
2022-11-09T20:11:08.775Z,7.10
2022-11-09T20:14:02.274Z,7.09
2022-11-09T20:16:53.306Z,7.12
2022-11-09T20:19:44.311Z,7.03
2022-11-09T20:22:37.921Z,7.01
2022-11-09T20:25:29.216Z,6.98
2022-11-09T20:28:21.443Z,6.92
2022-11-09T20:31:15.552Z,6.87
2022-11-09T20:34:08.140Z,6.83
2022-11-09T20:36:59.300Z,6.84
2022-11-09T20:39:50.185Z,6.78
2022-11-09T20:42:41.948Z,6.77
2022-11-09T20:45:36.633Z,6.77
2022-11-09T20:48:52.234Z,6.68
2022-11-09T20:51:39.073Z,6.66
2022-11-09T20:54:29.894Z,6.63
2022-11-09T20:57:21.198Z,6.58
2022-11-09T21:00:13.255Z,6.58
2022-11-09T21:03:05.379Z,6.55
2022-11-09T21:05:59.296Z,6.49
2022-11-09T21:08:52.346Z,6.48
2022-11-09T21:11:57.726Z,6.49
2022-11-09T21:14:48.666Z,6.48
2022-11-09T21:17:40.530Z,6.43
2022-11-09T21:20:32.760Z,6.34
2022-11-09T21:23:41.590Z,6.36
2022-11-09T21:26:50.877Z,6.39
2022-11-09T21:29:50.765Z,6.40
2022-11-09T21:32:41.854Z,6.39
2022-11-09T21:35:33.626Z,6.42
2022-11-09T21:38:24.810Z,6.41
2022-11-09T21:41:36.938Z,6.40
2022-11-09T21:44:29.078Z,6.30
2022-11-09T21:47:20.211Z,6.28
2022-11-09T21:50:12.774Z,6.23
2022-11-09T21:53:11.287Z,6.16
2022-11-09T21:56:02.326Z,6.17
2022-11-09T21:58:53.576Z,6.16
2022-11-09T22:01:44.789Z,6.10
2022-11-09T22:04:35.948Z,6.07
2022-11-09T22:07:27.071Z,6.06
2022-11-09T22:10:18.972Z,6.00
2022-11-09T22:13:31.146Z,5.99
2022-11-09T22:16:23.460Z,5.95
2022-11-09T22:19:32.521Z,5.92
2022-11-09T22:22:23.752Z,5.85
2022-11-09T22:25:14.993Z,5.83
2022-11-09T22:28:06.705Z,5.73
2022-11-09T22:31:00.185Z,5.69
2022-11-09T22:33:51.831Z,5.63
2022-11-09T22:36:42.805Z,5.63
2022-11-09T22:39:33.909Z,5.62
2022-11-09T22:42:24.913Z,5.64
2022-11-09T22:45:16.667Z,5.61
2022-11-09T22:48:07.481Z,5.61
2022-11-09T22:50:58.624Z,5.56
2022-11-09T22:53:50.604Z,5.52
2022-11-09T22:56:41.486Z,5.51
2022-11-09T22:59:32.321Z,5.53
2022-11-09T23:02:24.143Z,5.49
2022-11-09T23:05:15.806Z,5.45
2022-11-09T23:08:07.121Z,5.40
2022-11-09T23:10:58.239Z,5.35
2022-11-09T23:13:49.818Z,5.34
2022-11-09T23:16:40.533Z,5.31
2022-11-09T23:19:31.723Z,5.28
2022-11-09T23:22:22.781Z,5.26
2022-11-09T23:25:32.312Z,5.26
2022-11-09T23:28:23.062Z,5.24
2022-11-09T23:31:15.387Z,5.21
2022-11-09T23:34:10.246Z,5.19
2022-11-09T23:37:02.210Z,5.16
2022-11-09T23:39:53.435Z,5.16
2022-11-09T23:42:44.514Z,5.12
2022-11-09T23:45:36.963Z,5.08
2022-11-09T23:48:28.067Z,5.06
2022-11-09T23:51:19.087Z,5.06
2022-11-09T23:54:10.742Z,4.97
2022-11-09T23:57:01.819Z,4.96
2022-11-09T23:59:52.650Z,4.90
